createdAt,value
2023-02-05T00:01:37.742Z,5.54
2023-02-05T00:07:02.500Z,5.02
2023-02-05T00:12:27.535Z,5.32
2023-02-05T00:17:52.202Z,5.34
2023-02-05T00:23:16.159Z,4.99
2023-02-05T00:28:42.202Z,5.65
2023-02-05T00:34:04.298Z,5.15
2023-02-05T00:39:53.881Z,5.17
2023-02-05T00:45:36.319Z,4.52
2023-02-05T00:51:00.276Z,4.33
2023-02-05T00:56:22.868Z,4.83
2023-02-05T01:01:46.342Z,3.60
2023-02-05T01:07:11.297Z,3.27
2023-02-05T01:12:57.227Z,3.37
2023-02-05T01:18:21.133Z,2.98
2023-02-05T01:23:46.189Z,2.85
2023-02-05T01:29:10.689Z,3.17
2023-02-05T01:34:35.811Z,2.50
2023-02-05T01:40:01.282Z,2.10
2023-02-05T01:46:08.841Z,2.75
2023-02-05T01:51:52.841Z,2.49
2023-02-05T01:57:15.597Z,2.26
2023-02-05T02:02:40.384Z,1.78
2023-02-05T02:08:05.111Z,1.72
2023-02-05T02:13:26.129Z,1.83
2023-02-05T02:18:48.240Z,1.60
2023-02-05T02:24:11.320Z,2.37
2023-02-05T02:30:26.721Z,1.89
2023-02-05T02:36:30.760Z,2.00
2023-02-05T02:41:53.721Z,2.67
2023-02-05T02:47:18.814Z,2.33
2023-02-05T02:52:37.219Z,2.19
2023-02-05T02:57:59.782Z,2.03
2023-02-05T03:03:25.712Z,2.32
2023-02-05T03:08:50.958Z,2.10
2023-02-05T03:14:19.705Z,1.99
2023-02-05T03:19:43.878Z,2.47
2023-02-05T03:25:09.272Z,1.80
2023-02-05T03:30:34.555Z,1.75
2023-02-05T03:36:00.842Z,1.83
2023-02-05T03:41:30.841Z,1.65
2023-02-05T03:46:54.177Z,1.74
2023-02-05T03:52:18.933Z,1.39
2023-02-05T03:57:44.737Z,1.63
2023-02-05T04:03:11.677Z,1.35
2023-02-05T04:08:36.621Z,1.44
2023-02-05T04:14:01.555Z,1.60
2023-02-05T04:19:26.097Z,1.50
2023-02-05T04:24:51.772Z,1.86
2023-02-05T04:30:16.106Z,1.23
2023-02-05T04:35:40.256Z,1.83
2023-02-05T04:41:04.342Z,1.45
2023-02-05T04:46:46.009Z,1.72
2023-02-05T04:52:10.367Z,1.74
2023-02-05T04:57:32.971Z,1.63
2023-02-05T05:02:57.919Z,1.57
2023-02-05T05:08:37.674Z,1.76
2023-02-05T05:13:58.574Z,1.40
2023-02-05T05:19:23.849Z,1.48
2023-02-05T05:24:49.034Z,2.06
2023-02-05T05:30:11.402Z,1.88
2023-02-05T05:35:37.104Z,1.89
2023-02-05T05:41:00.314Z,1.72
2023-02-05T05:46:23.668Z,1.91
2023-02-05T05:51:47.485Z,1.94
2023-02-05T05:57:12.339Z,1.85
2023-02-05T06:03:22.597Z,2.04
2023-02-05T06:08:42.691Z,2.18
2023-02-05T06:14:05.671Z,1.93
2023-02-05T06:19:48.119Z,2.00
2023-02-05T06:25:09.388Z,2.80
2023-02-05T06:30:34.029Z,2.92
2023-02-05T06:36:02.022Z,3.02
2023-02-05T06:41:25.220Z,3.05
2023-02-05T06:46:51.164Z,2.86
2023-02-05T06:52:16.598Z,2.50
2023-02-05T06:57:41.864Z,2.71
2023-02-05T07:03:07.377Z,3.30
2023-02-05T07:08:29.856Z,2.80
2023-02-05T07:13:55.386Z,2.89
2023-02-05T07:19:24.910Z,2.54
2023-02-05T07:24:49.452Z,2.42
2023-02-05T07:30:14.962Z,2.81
2023-02-05T07:35:38.882Z,2.97
2023-02-05T07:41:04.424Z,2.46
2023-02-05T07:46:27.893Z,2.53
2023-02-05T07:52:11.915Z,3.08
2023-02-05T07:57:32.542Z,2.57
2023-02-05T08:03:12.841Z,3.13
2023-02-05T08:08:35.628Z,2.82
2023-02-05T08:14:00.716Z,3.36
2023-02-05T08:19:22.850Z,3.68
2023-02-05T08:24:47.017Z,3.52
2023-02-05T08:30:09.270Z,3.76
2023-02-05T08:35:36.020Z,3.52
2023-02-05T08:40:58.463Z,4.27
2023-02-05T08:46:24.200Z,4.79
2023-02-05T08:51:42.772Z,4.99
2023-02-05T08:57:07.486Z,6.35
2023-02-05T09:02:32.305Z,5.96
2023-02-05T09:07:56.434Z,5.62
2023-02-05T09:13:19.936Z,5.86
2023-02-05T09:18:44.665Z,6.57
2023-02-05T09:24:06.150Z,6.73
2023-02-05T09:29:28.835Z,6.60
2023-02-05T09:34:51.168Z,7.09
2023-02-05T09:40:20.409Z,7.06
2023-02-05T09:45:36.728Z,6.94
2023-02-05T09:51:00.272Z,8.45
2023-02-05T09:56:22.082Z,8.26
2023-02-05T10:01:46.030Z,7.75
2023-02-05T10:07:11.711Z,9.14
2023-02-05T10:12:37.892Z,8.24
2023-02-05T10:18:02.826Z,8.16
2023-02-05T10:23:29.788Z,8.65
2023-02-05T10:28:58.175Z,8.57
2023-02-05T10:34:55.579Z,8.52
2023-02-05T10:40:19.280Z,7.60
2023-02-05T10:45:41.221Z,8.75
2023-02-05T10:51:07.467Z,8.23
2023-02-05T10:56:31.739Z,9.82
2023-02-05T11:01:55.123Z,9.26
2023-02-05T11:07:15.472Z,9.41
2023-02-05T11:12:38.986Z,10.76
2023-02-05T11:18:22.536Z,11.19
2023-02-05T11:23:44.415Z,9.39
2023-02-05T11:29:14.914Z,9.70
2023-02-05T11:34:39.491Z,10.01
2023-02-05T11:40:01.210Z,9.94
2023-02-05T11:45:31.773Z,9.48
2023-02-05T11:50:51.333Z,9.01
2023-02-05T11:56:14.790Z,8.99
2023-02-05T12:01:39.243Z,8.56
2023-02-05T12:07:00.871Z,7.91
2023-02-05T12:12:26.009Z,9.12
2023-02-05T12:17:51.519Z,9.16
2023-02-05T12:23:17.122Z,10.98
2023-02-05T12:28:49.199Z,9.84
2023-02-05T12:34:17.867Z,13.02
2023-02-05T12:39:44.224Z,9.81
2023-02-05T12:45:09.529Z,11.42
2023-02-05T12:51:01.622Z,11.72
2023-02-05T12:56:28.882Z,10.56
2023-02-05T13:01:58.568Z,8.41
2023-02-05T13:07:23.054Z,8.71
2023-02-05T13:12:47.589Z,8.50
2023-02-05T13:18:13.079Z,8.75
2023-02-05T13:23:38.910Z,8.02
2023-02-05T13:29:03.941Z,8.62
2023-02-05T13:34:29.070Z,8.55
2023-02-05T13:39:54.124Z,6.07
2023-02-05T13:45:44.169Z,4.03
2023-02-05T13:51:29.666Z,3.30
2023-02-05T13:57:05.176Z,2.83
2023-02-05T14:02:38.546Z,2.57
2023-02-05T14:08:02.257Z,2.71
2023-02-05T14:13:32.376Z,2.27
2023-02-05T14:18:56.992Z,2.57
2023-02-05T14:24:46.722Z,2.07
2023-02-05T14:30:32.903Z,1.99
2023-02-05T14:36:00.019Z,2.96
2023-02-05T14:41:52.302Z,2.65
2023-02-05T14:47:16.775Z,2.40
2023-02-05T14:52:35.278Z,2.50
2023-02-05T14:57:59.897Z,2.64
2023-02-05T15:03:21.141Z,3.02
2023-02-05T15:08:45.960Z,2.46
2023-02-05T15:14:11.491Z,2.29
2023-02-05T15:20:16.346Z,4.06
2023-02-05T15:25:51.539Z,2.91
2023-02-05T15:31:15.276Z,3.12
2023-02-05T15:36:43.057Z,2.91
2023-02-05T15:42:35.099Z,3.26
2023-02-05T15:47:55.516Z,3.23
2023-02-05T15:53:21.988Z,4.20
2023-02-05T15:58:47.788Z,3.58
2023-02-05T16:04:12.752Z,3.68
2023-02-05T16:09:36.628Z,4.23
2023-02-05T16:15:15.832Z,4.39
2023-02-05T16:20:38.885Z,3.34
2023-02-05T16:26:03.495Z,4.10
2023-02-05T16:31:25.066Z,3.54
2023-02-05T16:36:45.181Z,3.99
2023-02-05T16:42:09.864Z,3.53
2023-02-05T16:48:27.371Z,4.62
2023-02-05T16:54:07.911Z,4.10
2023-02-05T16:59:49.225Z,3.92
2023-02-05T17:05:14.018Z,4.58
2023-02-05T17:10:40.142Z,4.90
2023-02-05T17:16:07.585Z,4.18
2023-02-05T17:21:39.030Z,4.33
2023-02-05T17:27:04.633Z,4.21
2023-02-05T17:32:30.191Z,3.89
2023-02-05T17:37:56.475Z,3.67
2023-02-05T17:43:18.880Z,4.35
2023-02-05T17:48:42.390Z,4.70
2023-02-05T17:54:06.572Z,4.69
2023-02-05T17:59:28.964Z,4.61
2023-02-05T18:04:55.338Z,3.42
2023-02-05T18:10:22.434Z,4.50
2023-02-05T18:21:51.106Z,4.16
2023-02-05T18:27:16.716Z,4.72
2023-02-05T18:32:44.572Z,4.39
2023-02-05T18:38:07.771Z,3.95
2023-02-05T18:43:33.451Z,4.08
2023-02-05T18:48:57.854Z,4.22
2023-02-05T18:54:22.362Z,4.62
2023-02-05T18:59:47.069Z,3.97
2023-02-05T19:05:12.011Z,3.98
2023-02-05T19:10:36.465Z,3.15
2023-02-05T19:16:01.815Z,4.08
2023-02-05T19:21:24.673Z,3.78
2023-02-05T19:26:49.248Z,4.40
2023-02-05T19:32:12.567Z,4.60
2023-02-05T19:37:36.718Z,4.93
2023-02-05T19:42:59.641Z,5.01
2023-02-05T19:48:23.738Z,5.72
2023-02-05T19:53:48.539Z,5.22
2023-02-05T19:59:13.949Z,4.78
2023-02-05T20:04:37.314Z,4.99
2023-02-05T20:10:45.081Z,5.07
2023-02-05T20:16:15.419Z,4.87
2023-02-05T20:21:37.319Z,4.31
2023-02-05T20:27:00.518Z,4.15
2023-02-05T20:32:21.588Z,3.71
2023-02-05T20:37:46.449Z,3.80
2023-02-05T20:43:10.178Z,3.50
2023-02-05T20:48:35.240Z,3.09
2023-02-05T20:53:59.872Z,3.79
2023-02-05T20:59:24.141Z,3.57
2023-02-05T21:04:48.439Z,3.88
2023-02-05T21:10:14.925Z,3.18
2023-02-05T21:15:40.135Z,3.68
2023-02-05T21:21:04.659Z,3.34
2023-02-05T21:26:31.312Z,3.81
2023-02-05T21:31:56.073Z,4.67
2023-02-05T21:37:20.336Z,4.26
2023-02-05T21:42:42.974Z,4.12
2023-02-05T21:48:06.359Z,4.36
2023-02-05T21:53:28.277Z,4.63
2023-02-05T21:58:50.171Z,4.21
2023-02-05T22:04:13.432Z,3.83
2023-02-05T22:09:36.928Z,4.13
2023-02-05T22:15:02.585Z,4.20
2023-02-05T22:20:27.981Z,3.98
2023-02-05T22:25:53.117Z,4.05
2023-02-05T22:31:18.138Z,3.46
2023-02-05T22:36:40.681Z,3.45
2023-02-05T22:42:05.373Z,3.34
2023-02-05T22:47:31.040Z,3.46
2023-02-05T22:52:56.689Z,3.50
2023-02-05T22:58:21.998Z,3.09
2023-02-05T23:03:46.426Z,2.76
2023-02-05T23:09:11.070Z,3.34
2023-02-05T23:14:35.384Z,3.24
2023-02-05T23:19:59.499Z,2.66
2023-02-05T23:25:22.719Z,3.12
2023-02-05T23:30:48.194Z,2.83
2023-02-05T23:36:10.841Z,3.13
2023-02-05T23:41:35.679Z,2.97
2023-02-05T23:47:00.604Z,2.74
2023-02-05T23:52:18.893Z,2.72
2023-02-05T23:58:10.122Z,3.19
